Neillsville, Wisconsin
Current Conditions -  °F | °C
As of 4:54 PM on Friday 31 Oct 2014 (Local Time) from KMFI Reporting Station
Overcast Overcast  
Wind Chill: 28°   Ceiling: 4400
Heat Index: 37°   Visibility: 10mi
Dew Point: 19°   Wind: 14mph
Humidity: 48%   Direction: 10°N
Pressure: 30.41"   Gusts: NA
Location:  44.56°N, 90.6°W
Report Text: KMFI 312154Z AUTO 01012KT 10SM OVC044 03/M07 A3041 RMK AO2 SLP313 T00281072
Loading
Personal Weather Stations






























Interactive Weather Map New forecast layout! Learn more

10-Day Weather Forecast

Advertisements
Track Severe Weather on mobile